Fort Ord Trail Run

Timing by Brazen Racing


Fort Ord Trail Run - Half Marathon Overall
2014
Place Name City Bib Age Age Group Place Age Group Guntime Chiptime Pace
1 Eric Palmer Monterey 3942 29 1 M20-29 1:34:25 1:34:24 7:06
2 Giles Healey Carmel 3974 44 1 M40-49 1:39:22 1:39:18 7:28
3 Randall Higashi Gilroy 3918 27 2 M20-29 1:42:04 1:41:58 7:40
4 Jose Cruz Gilroy 3908 22 3 M20-29 1:43:15 1:43:10 7:46
5 Jorge Moreno Oakland 3936 34 1 M30-39 1:44:08 1:44:02 7:50
6 Robert Cannon San Francisco 3906 28 4 M20-29 1:45:12 1:45:06 7:55
7 Joshua Youngblood Santa Cruz 3963 38 2 M30-39 1:45:50 1:45:46 7:58
8 Mark Moehling Monterey 3984 25 5 M20-29 1:52:10 1:52:04 8:26
9 Stephen Kukta Vallejo 3971 48 2 M40-49 1:53:50 1:53:46 8:34
10 Joshua Bieszad Lees Summit 3902 39 3 M30-39 1:56:24 1:56:11 8:45
11 Brian Moreno Aptos 3935 33 4 M30-39 2:03:33 2:03:07 9:16
12 Kirk Hammond Templeton 3916 50 1 M50-59 2:05:04 2:04:59 9:24
13 Linda Toplarski Monterey 3970 49 1 F40-49 2:05:09 2:05:05 9:25
14 Melissa Peterson Salinas 3975 30 1 F30-39 2:06:24 2:06:21 9:30
15 Amber Swedenborg Pacific Grove 3955 37 2 F30-39 2:06:41 2:06:38 9:32
16 Amadita Dicochea San Jose 3982 40 2 F40-49 2:07:05 2:06:43 9:32
17 Robert Lindstrom Palo Alto 3928 45 3 M40-49 2:07:33 2:07:26 9:35
18 Adam Gable Monterey 3976 34 5 M30-39 2:08:26 2:08:07 9:38
19 Patty Campbell Chand Clayton 3905 49 3 F40-49 2:08:54 2:08:48 9:42
20 Ronnie Platt Santa Cruz 3968 44 4 M40-49 2:13:49 2:13:44 10:04
21 Beth Welliver Spreckels 3960 34 3 F30-39 2:14:33 2:14:25 10:07
22 Mary Scannell Carmel 3977 48 4 F40-49 2:15:57 2:15:42 10:13
23 Hilary Hayssen San Francisco 3917 22 1 F20-29 2:16:13 2:15:56 10:14
24 Christine Villasenor Soledad 3959 40 5 F40-49 2:16:02 2:16:01 10:14
25 Erin Sprague Morgan Hill 3952 30 4 F30-39 2:16:33 2:16:19 10:15
26 Ashley Rappa Salinas 3944 27 2 F20-29 2:16:54 2:16:51 10:18
27 Nathan May Carmel 3932 32 6 M30-39 2:17:53 2:17:40 10:22
28 Laura Lammers San Francisco 3926 27 3 F20-29 2:18:13 2:17:56 10:23
29 Karen Grabowski Chicago 3914 38 5 F30-39 2:18:09 2:18:01 10:23
30 Kathrinne Hewett Pacific Grove 3983 24 4 F20-29 2:18:29 2:18:19 10:24
31 Katy Kunkle San Francisco 3923 26 5 F20-29 2:18:40 2:18:29 10:25
32 Michael Rodriguez Salinas 3948 47 6 F40-49 2:19:58 2:19:57 10:32
33 Tim Hoey Hillsborough 3919 55 2 M50-59 2:23:48 2:23:34 10:48
34 Sarah Turse Pacific Grove 3958 33 6 F30-39 2:24:22 2:23:57 10:50
35 Matthew Johnson Seaside 3921 35 7 M30-39 2:27:42 2:27:20 11:05
36 Kent Hoxsey Walnut Creek 3920 48 5 M40-49 2:27:55 2:27:30 11:06
37 Paul Fellinger Monterey 3912 45 6 M40-49 2:29:22 2:29:02 11:13
38 Varunee Moser Fair Oaks 3937 47 7 F40-49 2:31:20 2:31:09 11:22
39 Jess Soco 3978 47 7 M40-49 2:31:46 2:31:20 11:23
40 Jonathan Fales Redwood City 3911 40 8 M40-49 2:31:36 2:31:33 11:24
41 Colin Evans Los Gatos 5852 34 8 M30-39 2:33:21 2:32:57 11:30
42 Shannon Thibert San Jose 3957 41 8 F40-49 2:33:32 2:33:20 11:32
43 Amy Royston Fresno 3949 41 9 F40-49 2:36:01 2:35:50 11:43
44 Colby Droubi El Granade 3972 39 7 F30-39 2:37:04 2:36:51 11:48
45 Ann Braak Carmel 3964 52 1 F50-59 2:37:16 2:36:59 11:49
46 Eric Loewe El Dorado Hills 3930 56 3 M50-59 2:39:19 2:39:02 11:58
47 Kayla Marti Newburgh 3966 23 6 F20-29 2:40:37 2:40:22 12:04
48 Patricia Lasalle Dublin 3927 61 1 F60-99 2:41:17 2:41:07 12:07
49 Paul Kutis Salinas 3925 59 4 M50-59 2:41:33 2:41:28 12:09
50 Dagmar Kutis Salinas 3924 54 2 F50-59 2:41:35 2:41:30 12:09
Place Name City Bib Age Age Group Place Age Group Guntime Chiptime Pace
51 Mike Sullivan Pacific Grove 3954 69 1 M60-99 2:43:49 2:43:25 12:18
52 Takashi Kanamori San Jose 3922 38 9 M30-39 2:44:45 2:44:10 12:21
53 Matt Suess Carmel 3953 46 9 M40-49 2:46:40 2:46:30 12:32
54 Floyd Redmon Aptos 3945 68 2 M60-99 2:46:56 2:46:37 12:32
55 Robert Schulz Seaside 3969 31 10 M30-39 2:47:39 2:47:19 12:35
56 Laurel Posey Grover Beach 3943 55 3 F50-59 2:49:59 2:49:39 12:46
57 Nicholas Chee Salinas 3981 48 10 M40-49 2:51:26 2:50:59 12:52
58 Peggy Lehman Davis 3973 63 2 F60-99 2:53:10 2:53:03 13:01
59 Dani Gaitan Fenton 3965 23 7 F20-29 2:53:50 2:53:36 13:04
60 Sarah Deal Monterey 3910 31 8 F30-39 2:55:03 2:54:54 13:10
61 Ralph Wright Grover Beach 3961 60 3 M60-99 3:00:19 2:59:59 13:32
62 Wendy Brule Salinas 3903 52 4 F50-59 3:01:31 3:01:12 13:38
63 Michael Davis Salinas 3909 60 4 M60-99 3:04:35 3:04:06 13:51
64 Heidi Short Carmel 7466 46 10 F40-49 3:06:07 3:05:37 13:58
65 Eric Schaper San Jose 3950 47 11 M40-49 3:11:08 3:10:41 14:21
66 Monica Arvin Pacific Grove 3980 49 11 F40-49 3:13:32 3:13:04 14:31
67 Judit Sedillos Carmel Valley 3951 40 12 F40-49 3:15:22 3:15:01 14:40
68 Paul Alcantra Dublin 3900 63 5 M60-99 3:15:16 3:15:05 14:41
69 Joann Mix Monterey 3967 38 9 F30-39 3:23:42 3:23:26 15:18
70 Monica Mendoza Oakland 3933 38 10 F30-39 3:27:46 3:27:14 15:35
71 Dasie Yamagata Citrus Heights 3962 59 5 F50-59 4:20:41 4:20:19 19:35
72 Lisa Mineo Monterey 5816 46 13 F40-49 4:43:42 4:43:11 21:18
73 Joanie Compagno Seaside 5680 48 14 F40-49 4:55:23 4:54:53 22:11